METAR Data
IDs: Format: Raw Decoded Include TAF

Data at: 1333 UTC 21 Apr 2021

PTKK 211253Z 00000KT 15SM SCT014CB OVC120 27/24 A2985 RMK CB ALQDS SLP110 T02670235